sensor_id;sensor_type;location;lat;lon;timestamp;pressure;altitude;pressure_sealevel;temperature;humidity
53246;BME280;39569;51.090;-1.786;2022-07-25T00:02:06;100346.47;;;17.82;82.78
53246;BME280;39569;51.090;-1.786;2022-07-25T00:04:33;100343.19;;;17.80;82.70
53246;BME280;39569;51.090;-1.786;2022-07-25T00:07:00;100348.66;;;17.61;83.38
53246;BME280;39569;51.090;-1.786;2022-07-25T00:09:27;100338.06;;;17.60;83.45
53246;BME280;39569;51.090;-1.786;2022-07-25T00:11:53;100342.75;;;17.53;83.88
53246;BME280;39569;51.090;-1.786;2022-07-25T00:14:20;100339.03;;;17.65;83.29
53246;BME280;39569;51.090;-1.786;2022-07-25T00:16:48;100340.63;;;17.55;83.64
53246;BME280;39569;51.090;-1.786;2022-07-25T00:19:15;100332.06;;;17.58;83.27
53246;BME280;39569;51.090;-1.786;2022-07-25T00:21:42;100326.97;;;17.50;83.57
53246;BME280;39569;51.090;-1.786;2022-07-25T00:24:08;100321.72;;;17.55;83.19
53246;BME280;39569;51.090;-1.786;2022-07-25T00:26:35;100326.31;;;17.54;83.45
53246;BME280;39569;51.090;-1.786;2022-07-25T00:29:02;100324.06;;;17.51;83.73
53246;BME280;39569;51.090;-1.786;2022-07-25T00:31:29;100312.56;;;17.56;83.60
53246;BME280;39569;51.090;-1.786;2022-07-25T00:33:57;100309.31;;;17.65;83.50
53246;BME280;39569;51.090;-1.786;2022-07-25T00:36:24;100311.31;;;17.58;83.60
53246;BME280;39569;51.090;-1.786;2022-07-25T00:38:50;100308.03;;;17.68;83.20
53246;BME280;39569;51.090;-1.786;2022-07-25T00:41:17;100304.00;;;17.59;83.49
53246;BME280;39569;51.090;-1.786;2022-07-25T00:43:45;100304.75;;;17.66;83.04
53246;BME280;39569;51.090;-1.786;2022-07-25T00:46:12;100302.63;;;17.68;83.18
53246;BME280;39569;51.090;-1.786;2022-07-25T00:48:39;100297.13;;;17.75;83.01
53246;BME280;39569;51.090;-1.786;2022-07-25T00:51:08;100295.03;;;17.77;82.49
53246;BME280;39569;51.090;-1.786;2022-07-25T00:53:35;100287.84;;;17.71;82.91
53246;BME280;39569;51.090;-1.786;2022-07-25T00:56:03;100289.00;;;17.63;83.25
53246;BME280;39569;51.090;-1.786;2022-07-25T00:58:30;100281.34;;;17.60;83.29
53246;BME280;39569;51.090;-1.786;2022-07-25T01:00:59;100273.69;;;17.57;83.75
53246;BME280;39569;51.090;-1.786;2022-07-25T01:03:26;100268.28;;;17.57;83.91
53246;BME280;39569;51.090;-1.786;2022-07-25T01:05:53;100267.50;;;17.56;83.80
53246;BME280;39569;51.090;-1.786;2022-07-25T01:08:21;100274.53;;;17.57;83.70
53246;BME280;39569;51.090;-1.786;2022-07-25T01:10:48;100275.72;;;17.61;83.37
53246;BME280;39569;51.090;-1.786;2022-07-25T01:13:15;100267.88;;;17.72;83.06
53246;BME280;39569;51.090;-1.786;2022-07-25T01:15:42;100267.75;;;17.66;83.24
53246;BME280;39569;51.090;-1.786;2022-07-25T01:18:10;100267.28;;;17.70;83.26
53246;BME280;39569;51.090;-1.786;2022-07-25T01:20:38;100267.06;;;17.71;83.39
53246;BME280;39569;51.090;-1.786;2022-07-25T01:23:05;100267.78;;;17.78;83.17
53246;BME280;39569;51.090;-1.786;2022-07-25T01:25:31;100268.84;;;17.89;82.66
53246;BME280;39569;51.090;-1.786;2022-07-25T01:27:58;100268.97;;;17.82;82.81
53246;BME280;39569;51.090;-1.786;2022-07-25T01:30:25;100272.25;;;17.84;82.66
53246;BME280;39569;51.090;-1.786;2022-07-25T01:32:52;100272.03;;;17.97;82.00
53246;BME280;39569;51.090;-1.786;2022-07-25T01:35:19;100266.72;;;17.91;81.96
53246;BME280;39569;51.090;-1.786;2022-07-25T01:37:47;100263.66;;;17.87;82.53
53246;BME280;39569;51.090;-1.786;2022-07-25T01:40:14;100251.81;;;17.88;82.34
53246;BME280;39569;51.090;-1.786;2022-07-25T01:42:41;100249.56;;;17.85;82.64
53246;BME280;39569;51.090;-1.786;2022-07-25T01:45:10;100251.69;;;17.83;82.60
53246;BME280;39569;51.090;-1.786;2022-07-25T01:47:36;100249.06;;;17.65;83.31
53246;BME280;39569;51.090;-1.786;2022-07-25T01:50:04;100237.56;;;17.58;83.59
53246;BME280;39569;51.090;-1.786;2022-07-25T01:52:31;100240.34;;;17.51;83.67
53246;BME280;39569;51.090;-1.786;2022-07-25T01:55:00;100247.75;;;17.56;83.24
53246;BME280;39569;51.090;-1.786;2022-07-25T01:57:26;100247.63;;;17.51;83.84
53246;BME280;39569;51.090;-1.786;2022-07-25T01:59:53;100243.19;;;17.68;83.09
53246;BME280;39569;51.090;-1.786;2022-07-25T02:02:20;100249.53;;;17.62;83.50
53246;BME280;39569;51.090;-1.786;2022-07-25T02:04:47;100244.59;;;17.59;83.60
53246;BME280;39569;51.090;-1.786;2022-07-25T02:07:13;100242.84;;;17.53;83.37
53246;BME280;39569;51.090;-1.786;2022-07-25T02:09:40;100244.41;;;17.42;83.51
53246;BME280;39569;51.090;-1.786;2022-07-25T02:12:09;100246.72;;;17.39;83.92
53246;BME280;39569;51.090;-1.786;2022-07-25T02:14:35;100250.59;;;17.31;84.04
53246;BME280;39569;51.090;-1.786;2022-07-25T02:17:02;100255.38;;;17.29;83.95
53246;BME280;39569;51.090;-1.786;2022-07-25T02:19:29;100243.88;;;17.22;84.31
53246;BME280;39569;51.090;-1.786;2022-07-25T02:21:56;100240.19;;;17.17;84.46
53246;BME280;39569;51.090;-1.786;2022-07-25T02:24:22;100246.06;;;17.14;84.62
53246;BME280;39569;51.090;-1.786;2022-07-25T02:26:49;100251.53;;;17.07;84.91
53246;BME280;39569;51.090;-1.786;2022-07-25T02:29:17;100255.44;;;17.11;84.64
53246;BME280;39569;51.090;-1.786;2022-07-25T02:31:44;100256.16;;;17.18;84.50
53246;BME280;39569;51.090;-1.786;2022-07-25T02:34:11;100258.00;;;17.06;84.72
53246;BME280;39569;51.090;-1.786;2022-07-25T02:36:38;100255.38;;;17.00;84.72
53246;BME280;39569;51.090;-1.786;2022-07-25T02:39:05;100258.16;;;16.93;84.99
53246;BME280;39569;51.090;-1.786;2022-07-25T02:41:32;100249.94;;;16.88;84.70
53246;BME280;39569;51.090;-1.786;2022-07-25T02:43:58;100243.59;;;16.83;84.92
53246;BME280;39569;51.090;-1.786;2022-07-25T02:46:26;100246.28;;;16.83;84.70
53246;BME280;39569;51.090;-1.786;2022-07-25T02:48:53;100245.59;;;16.87;83.90
53246;BME280;39569;51.090;-1.786;2022-07-25T02:51:20;100240.06;;;16.82;84.03
53246;BME280;39569;51.090;-1.786;2022-07-25T02:53:47;100246.19;;;16.89;83.67
53246;BME280;39569;51.090;-1.786;2022-07-25T02:56:14;100234.31;;;16.90;83.40
53246;BME280;39569;51.090;-1.786;2022-07-25T02:58:40;100236.81;;;16.92;82.78
53246;BME280;39569;51.090;-1.786;2022-07-25T03:01:07;100235.25;;;16.84;82.74
53246;BME280;39569;51.090;-1.786;2022-07-25T03:03:35;100231.53;;;16.67;83.34
53246;BME280;39569;51.090;-1.786;2022-07-25T03:06:02;100223.91;;;16.64;83.59
53246;BME280;39569;51.090;-1.786;2022-07-25T03:08:29;100237.56;;;16.62;83.37
53246;BME280;39569;51.090;-1.786;2022-07-25T03:10:56;100228.16;;;16.53;83.53
53246;BME280;39569;51.090;-1.786;2022-07-25T03:13:23;100232.50;;;16.54;83.71
53246;BME280;39569;51.090;-1.786;2022-07-25T03:15:50;100223.44;;;16.67;83.57
53246;BME280;39569;51.090;-1.786;2022-07-25T03:18:17;100222.16;;;16.69;83.48
53246;BME280;39569;51.090;-1.786;2022-07-25T03:20:45;100217.91;;;16.62;84.00
53246;BME280;39569;51.090;-1.786;2022-07-25T03:23:12;100216.69;;;16.58;84.27
53246;BME280;39569;51.090;-1.786;2022-07-25T03:25:38;100214.66;;;16.53;84.92
53246;BME280;39569;51.090;-1.786;2022-07-25T03:28:05;100220.97;;;16.47;85.22
53246;BME280;39569;51.090;-1.786;2022-07-25T03:30:32;100218.44;;;16.52;85.05
53246;BME280;39569;51.090;-1.786;2022-07-25T03:32:59;100223.97;;;16.57;84.73
53246;BME280;39569;51.090;-1.786;2022-07-25T03:35:25;100224.09;;;16.62;84.56
53246;BME280;39569;51.090;-1.786;2022-07-25T03:37:54;100233.16;;;16.68;84.52
53246;BME280;39569;51.090;-1.786;2022-07-25T03:40:21;100237.41;;;16.76;84.25
53246;BME280;39569;51.090;-1.786;2022-07-25T03:42:48;100233.69;;;16.77;84.12
53246;BME280;39569;51.090;-1.786;2022-07-25T03:45:15;100243.41;;;16.78;83.72
53246;BME280;39569;51.090;-1.786;2022-07-25T03:47:42;100240.66;;;16.84;83.79
53246;BME280;39569;51.090;-1.786;2022-07-25T03:50:09;100237.97;;;16.84;83.73
53246;BME280;39569;51.090;-1.786;2022-07-25T03:52:36;100237.63;;;16.92;83.07
53246;BME280;39569;51.090;-1.786;2022-07-25T03:55:06;100243.94;;;16.86;83.37
53246;BME280;39569;51.090;-1.786;2022-07-25T03:57:33;100238.63;;;16.80;83.60
53246;BME280;39569;51.090;-1.786;2022-07-25T04:00:00;100239.69;;;16.79;83.33
53246;BME280;39569;51.090;-1.786;2022-07-25T04:02:26;100233.38;;;16.85;83.55
53246;BME280;39569;51.090;-1.786;2022-07-25T04:04:53;100240.19;;;16.87;83.17
53246;BME280;39569;51.090;-1.786;2022-07-25T04:07:20;100235.41;;;16.89;82.89
53246;BME280;39569;51.090;-1.786;2022-07-25T04:09:47;100240.28;;;16.81;83.12
53246;BME280;39569;51.090;-1.786;2022-07-25T04:12:15;100241.31;;;16.80;83.42
53246;BME280;39569;51.090;-1.786;2022-07-25T04:14:42;100240.06;;;16.82;83.20
53246;BME280;39569;51.090;-1.786;2022-07-25T04:17:09;100241.69;;;16.83;83.39
53246;BME280;39569;51.090;-1.786;2022-07-25T04:19:35;100238.47;;;16.75;83.48
53246;BME280;39569;51.090;-1.786;2022-07-25T04:22:02;100233.22;;;16.80;82.96
53246;BME280;39569;51.090;-1.786;2022-07-25T04:24:29;100228.19;;;16.83;83.20
53246;BME280;39569;51.090;-1.786;2022-07-25T04:26:56;100229.94;;;16.78;83.07
53246;BME280;39569;51.090;-1.786;2022-07-25T04:29:24;100222.59;;;16.66;83.72
53246;BME280;39569;51.090;-1.786;2022-07-25T04:31:51;100221.47;;;16.74;83.25
53246;BME280;39569;51.090;-1.786;2022-07-25T04:34:19;100221.44;;;16.92;82.25
53246;BME280;39569;51.090;-1.786;2022-07-25T04:36:45;100227.41;;;16.83;82.40
53246;BME280;39569;51.090;-1.786;2022-07-25T04:39:12;100239.22;;;16.82;81.89
53246;BME280;39569;51.090;-1.786;2022-07-25T04:41:39;100228.00;;;16.66;82.18
53246;BME280;39569;51.090;-1.786;2022-07-25T04:44:06;100234.69;;;16.64;81.78
53246;BME280;39569;51.090;-1.786;2022-07-25T04:46:34;100235.31;;;16.41;82.62
53246;BME280;39569;51.090;-1.786;2022-07-25T04:49:01;100234.50;;;16.59;82.17
53246;BME280;39569;51.090;-1.786;2022-07-25T04:51:28;100236.31;;;16.65;82.28
53246;BME280;39569;51.090;-1.786;2022-07-25T04:53:54;100249.75;;;16.72;82.06
53246;BME280;39569;51.090;-1.786;2022-07-25T04:56:21;100240.59;;;16.73;82.26
53246;BME280;39569;51.090;-1.786;2022-07-25T04:58:48;100235.88;;;16.98;81.50
53246;BME280;39569;51.090;-1.786;2022-07-25T05:01:15;100244.31;;;16.90;81.59
53246;BME280;39569;51.090;-1.786;2022-07-25T05:03:43;100244.78;;;17.16;80.80
53246;BME280;39569;51.090;-1.786;2022-07-25T05:06:10;100246.97;;;17.37;79.67
53246;BME280;39569;51.090;-1.786;2022-07-25T05:08:37;100246.91;;;17.26;78.92
53246;BME280;39569;51.090;-1.786;2022-07-25T05:11:04;100247.63;;;17.21;78.33
53246;BME280;39569;51.090;-1.786;2022-07-25T05:13:31;100252.50;;;17.42;77.44
53246;BME280;39569;51.090;-1.786;2022-07-25T05:15:57;100240.34;;;17.51;77.10
53246;BME280;39569;51.090;-1.786;2022-07-25T05:18:24;100241.66;;;17.60;75.47
53246;BME280;39569;51.090;-1.786;2022-07-25T05:20:52;100248.44;;;17.51;74.99
53246;BME280;39569;51.090;-1.786;2022-07-25T05:23:19;100254.16;;;17.43;75.68
53246;BME280;39569;51.090;-1.786;2022-07-25T05:25:46;100253.41;;;17.54;74.63
53246;BME280;39569;51.090;-1.786;2022-07-25T05:28:13;100260.66;;;17.54;74.72
53246;BME280;39569;51.090;-1.786;2022-07-25T05:30:40;100255.97;;;17.61;74.31
53246;BME280;39569;51.090;-1.786;2022-07-25T05:33:07;100261.84;;;17.58;74.74
53246;BME280;39569;51.090;-1.786;2022-07-25T05:35:33;100259.03;;;17.64;74.88
53246;BME280;39569;51.090;-1.786;2022-07-25T05:38:02;100254.47;;;17.65;75.75
53246;BME280;39569;51.090;-1.786;2022-07-25T05:40:28;100260.00;;;17.40;76.51
53246;BME280;39569;51.090;-1.786;2022-07-25T05:42:55;100256.13;;;17.36;76.46
53246;BME280;39569;51.090;-1.786;2022-07-25T05:45:22;100253.69;;;17.17;76.90
53246;BME280;39569;51.090;-1.786;2022-07-25T05:47:49;100249.91;;;17.06;75.90
53246;BME280;39569;51.090;-1.786;2022-07-25T05:50:15;100253.56;;;18.40;70.91
53246;BME280;39569;51.090;-1.786;2022-07-25T05:52:42;100247.59;;;19.57;65.84
53246;BME280;39569;51.090;-1.786;2022-07-25T05:55:10;100246.97;;;19.39;66.47
53246;BME280;39569;51.090;-1.786;2022-07-25T05:57:37;100254.13;;;19.17;67.14
53246;BME280;39569;51.090;-1.786;2022-07-25T06:00:06;100248.91;;;19.27;66.89
53246;BME280;39569;51.090;-1.786;2022-07-25T06:02:33;100253.22;;;20.55;61.87
53246;BME280;39569;51.090;-1.786;2022-07-25T06:05:00;100244.84;;;21.48;58.67
53246;BME280;39569;51.090;-1.786;2022-07-25T06:07:27;100255.13;;;22.41;55.29
53246;BME280;39569;51.090;-1.786;2022-07-25T06:09:53;100249.28;;;20.46;60.16
53246;BME280;39569;51.090;-1.786;2022-07-25T06:12:21;100256.25;;;20.21;62.17
53246;BME280;39569;51.090;-1.786;2022-07-25T06:14:48;100252.38;;;19.67;63.32
53246;BME280;39569;51.090;-1.786;2022-07-25T06:17:15;100254.66;;;19.30;65.84
53246;BME280;39569;51.090;-1.786;2022-07-25T06:19:42;100258.69;;;19.16;66.42
53246;BME280;39569;51.090;-1.786;2022-07-25T06:22:08;100270.91;;;18.91;67.15
53246;BME280;39569;51.090;-1.786;2022-07-25T06:24:35;100282.03;;;18.66;68.39
53246;BME280;39569;51.090;-1.786;2022-07-25T06:27:03;100274.50;;;18.68;67.15
53246;BME280;39569;51.090;-1.786;2022-07-25T06:29:31;100273.19;;;18.71;67.50
53246;BME280;39569;51.090;-1.786;2022-07-25T06:31:57;100273.97;;;18.94;66.75
53246;BME280;39569;51.090;-1.786;2022-07-25T06:34:24;100276.41;;;18.96;66.90
53246;BME280;39569;51.090;-1.786;2022-07-25T06:36:51;100278.66;;;18.99;66.97
53246;BME280;39569;51.090;-1.786;2022-07-25T06:39:18;100298.03;;;18.68;67.49
53246;BME280;39569;51.090;-1.786;2022-07-25T06:41:44;100286.16;;;18.57;68.13
53246;BME280;39569;51.090;-1.786;2022-07-25T06:44:11;100294.75;;;18.54;68.59
53246;BME280;39569;51.090;-1.786;2022-07-25T06:46:39;100293.56;;;18.50;68.37
53246;BME280;39569;51.090;-1.786;2022-07-25T06:49:06;100298.38;;;18.71;67.38
53246;BME280;39569;51.090;-1.786;2022-07-25T06:51:33;100295.66;;;18.83;66.19
53246;BME280;39569;51.090;-1.786;2022-07-25T06:54:00;100292.63;;;19.92;62.61
53246;BME280;39569;51.090;-1.786;2022-07-25T06:56:27;100289.69;;;20.26;61.47
53246;BME280;39569;51.090;-1.786;2022-07-25T06:58:55;100279.41;;;20.12;61.75
53246;BME280;39569;51.090;-1.786;2022-07-25T07:01:22;100286.84;;;19.72;63.12
53246;BME280;39569;51.090;-1.786;2022-07-25T07:03:50;100284.66;;;20.02;62.29
53246;BME280;39569;51.090;-1.786;2022-07-25T07:06:17;100277.69;;;20.22;61.71
53246;BME280;39569;51.090;-1.786;2022-07-25T07:08:44;100275.13;;;20.16;61.26
53246;BME280;39569;51.090;-1.786;2022-07-25T07:11:11;100272.41;;;19.83;63.26
53246;BME280;39569;51.090;-1.786;2022-07-25T07:13:39;100260.84;;;20.20;61.30
53246;BME280;39569;51.090;-1.786;2022-07-25T07:16:06;100270.84;;;20.75;59.89
53246;BME280;39569;51.090;-1.786;2022-07-25T07:18:33;100270.06;;;20.79;58.97
53246;BME280;39569;51.090;-1.786;2022-07-25T07:21:01;100282.06;;;19.45;63.82
53246;BME280;39569;51.090;-1.786;2022-07-25T07:23:28;100280.88;;;19.86;63.31
53246;BME280;39569;51.090;-1.786;2022-07-25T07:25:55;100276.38;;;20.08;61.37
53246;BME280;39569;51.090;-1.786;2022-07-25T07:28:23;100287.91;;;19.54;62.79
53246;BME280;39569;51.090;-1.786;2022-07-25T07:30:49;100279.47;;;19.39;63.05
53246;BME280;39569;51.090;-1.786;2022-07-25T07:33:16;100283.31;;;19.54;63.28
53246;BME280;39569;51.090;-1.786;2022-07-25T07:35:43;100289.16;;;19.35;64.69
53246;BME280;39569;51.090;-1.786;2022-07-25T07:38:11;100291.84;;;19.35;64.58
53246;BME280;39569;51.090;-1.786;2022-07-25T07:40:39;100296.72;;;19.21;63.86
53246;BME280;39569;51.090;-1.786;2022-07-25T07:43:05;100303.03;;;19.38;63.63
53246;BME280;39569;51.090;-1.786;2022-07-25T07:45:32;100292.81;;;19.57;62.67
53246;BME280;39569;51.090;-1.786;2022-07-25T07:48:00;100300.38;;;19.55;62.98
53246;BME280;39569;51.090;-1.786;2022-07-25T07:50:27;100301.31;;;19.32;63.23
53246;BME280;39569;51.090;-1.786;2022-07-25T07:52:55;100298.25;;;19.29;63.24
53246;BME280;39569;51.090;-1.786;2022-07-25T07:55:24;100306.31;;;19.69;62.16
53246;BME280;39569;51.090;-1.786;2022-07-25T07:58:08;100294.88;;;20.28;60.67
53246;BME280;39569;51.090;-1.786;2022-07-25T08:00:36;100305.38;;;20.41;60.69
53246;BME280;39569;51.090;-1.786;2022-07-25T08:03:05;100297.25;;;20.24;60.21
53246;BME280;39569;51.090;-1.786;2022-07-25T08:05:35;100296.28;;;20.30;60.94
53246;BME280;39569;51.090;-1.786;2022-07-25T08:08:03;100298.47;;;20.00;61.70
53246;BME280;39569;51.090;-1.786;2022-07-25T08:10:34;100303.31;;;21.29;58.10
53246;BME280;39569;51.090;-1.786;2022-07-25T08:13:03;100309.94;;;20.95;58.85
53246;BME280;39569;51.090;-1.786;2022-07-25T08:15:37;100301.41;;;20.87;59.02
53246;BME280;39569;51.090;-1.786;2022-07-25T08:18:04;100309.84;;;20.30;59.95
53246;BME280;39569;51.090;-1.786;2022-07-25T08:20:31;100321.38;;;20.09;61.28
53246;BME280;39569;51.090;-1.786;2022-07-25T08:22:57;100325.63;;;19.44;63.31
53246;BME280;39569;51.090;-1.786;2022-07-25T08:25:24;100326.28;;;19.23;63.58
53246;BME280;39569;51.090;-1.786;2022-07-25T08:27:53;100322.38;;;19.30;63.83
53246;BME280;39569;51.090;-1.786;2022-07-25T08:30:20;100327.25;;;19.56;64.01
53246;BME280;39569;51.090;-1.786;2022-07-25T08:32:49;100323.03;;;19.94;62.20
53246;BME280;39569;51.090;-1.786;2022-07-25T08:35:16;100328.69;;;20.09;62.12
53246;BME280;39569;51.090;-1.786;2022-07-25T08:37:43;100328.72;;;20.42;60.70
53246;BME280;39569;51.090;-1.786;2022-07-25T08:40:11;100335.75;;;20.98;59.21
53246;BME280;39569;51.090;-1.786;2022-07-25T08:42:38;100325.19;;;20.80;58.27
53246;BME280;39569;51.090;-1.786;2022-07-25T08:45:09;100315.41;;;21.17;56.96
53246;BME280;39569;51.090;-1.786;2022-07-25T08:47:38;100319.59;;;21.51;56.62
53246;BME280;39569;51.090;-1.786;2022-07-25T08:50:08;100322.81;;;21.48;55.39
53246;BME280;39569;51.090;-1.786;2022-07-25T08:52:35;100329.19;;;20.94;57.12
53246;BME280;39569;51.090;-1.786;2022-07-25T08:55:04;100322.56;;;20.30;58.91
53246;BME280;39569;51.090;-1.786;2022-07-25T08:57:32;100327.59;;;20.21;60.01
53246;BME280;39569;51.090;-1.786;2022-07-25T09:00:00;100320.09;;;20.12;59.95
53246;BME280;39569;51.090;-1.786;2022-07-25T09:02:28;100323.47;;;20.19;60.47
53246;BME280;39569;51.090;-1.786;2022-07-25T09:04:56;100330.53;;;20.20;61.07
53246;BME280;39569;51.090;-1.786;2022-07-25T09:07:34;100336.25;;;20.07;61.39
53246;BME280;39569;51.090;-1.786;2022-07-25T09:10:11;100327.91;;;20.25;60.68
53246;BME280;39569;51.090;-1.786;2022-07-25T09:12:38;100334.22;;;20.14;61.38
53246;BME280;39569;51.090;-1.786;2022-07-25T09:15:06;100328.06;;;20.35;60.64
53246;BME280;39569;51.090;-1.786;2022-07-25T09:17:35;100333.81;;;20.22;61.24
53246;BME280;39569;51.090;-1.786;2022-07-25T09:20:03;100338.44;;;20.38;61.17
53246;BME280;39569;51.090;-1.786;2022-07-25T09:22:42;100344.63;;;20.72;60.75
53246;BME280;39569;51.090;-1.786;2022-07-25T09:25:22;100343.06;;;21.14;59.17
53246;BME280;39569;51.090;-1.786;2022-07-25T09:27:49;100349.13;;;21.21;59.03
53246;BME280;39569;51.090;-1.786;2022-07-25T09:30:16;100347.75;;;20.80;60.94
53246;BME280;39569;51.090;-1.786;2022-07-25T09:32:45;100349.41;;;21.19;59.24
53246;BME280;39569;51.090;-1.786;2022-07-25T09:35:12;100347.59;;;21.51;60.28
53246;BME280;39569;51.090;-1.786;2022-07-25T09:37:39;100356.41;;;21.15;59.58
53246;BME280;39569;51.090;-1.786;2022-07-25T09:40:14;100353.28;;;21.07;60.55
53246;BME280;39569;51.090;-1.786;2022-07-25T09:42:41;100365.28;;;21.54;58.30
53246;BME280;39569;51.090;-1.786;2022-07-25T09:45:12;100359.72;;;21.44;58.58
53246;BME280;39569;51.090;-1.786;2022-07-25T09:47:53;100355.56;;;21.36;58.80
53246;BME280;39569;51.090;-1.786;2022-07-25T09:50:21;100370.50;;;21.34;58.56
53246;BME280;39569;51.090;-1.786;2022-07-25T09:52:49;100370.09;;;21.04;60.13
53246;BME280;39569;51.090;-1.786;2022-07-25T09:55:17;100376.09;;;20.89;60.56
53246;BME280;39569;51.090;-1.786;2022-07-25T09:57:45;100390.91;;;20.15;66.18
53246;BME280;39569;51.090;-1.786;2022-07-25T10:00:14;100399.47;;;19.79;74.11
53246;BME280;39569;51.090;-1.786;2022-07-25T10:02:51;100400.66;;;19.72;75.68
53246;BME280;39569;51.090;-1.786;2022-07-25T10:05:30;100400.03;;;20.09;73.49
53246;BME280;39569;51.090;-1.786;2022-07-25T10:08:04;100401.75;;;20.60;75.19
53246;BME280;39569;51.090;-1.786;2022-07-25T10:10:36;100408.75;;;21.11;71.08
53246;BME280;39569;51.090;-1.786;2022-07-25T10:13:05;100404.78;;;21.83;68.18
53246;BME280;39569;51.090;-1.786;2022-07-25T10:15:45;100408.66;;;21.87;68.67
53246;BME280;39569;51.090;-1.786;2022-07-25T10:18:14;100401.13;;;22.89;62.21
53246;BME280;39569;51.090;-1.786;2022-07-25T10:20:42;100401.66;;;22.86;61.28
53246;BME280;39569;51.090;-1.786;2022-07-25T10:23:19;100407.47;;;22.63;63.08
53246;BME280;39569;51.090;-1.786;2022-07-25T10:25:58;100407.72;;;22.98;63.74
53246;BME280;39569;51.090;-1.786;2022-07-25T10:28:35;100404.03;;;22.78;60.96
53246;BME280;39569;51.090;-1.786;2022-07-25T10:31:02;100403.31;;;24.81;55.04
53246;BME280;39569;51.090;-1.786;2022-07-25T10:33:41;100410.50;;;25.51;52.25
53246;BME280;39569;51.090;-1.786;2022-07-25T10:36:09;100416.09;;;24.05;54.05
53246;BME280;39569;51.090;-1.786;2022-07-25T10:38:37;100420.09;;;23.21;56.15
53246;BME280;39569;51.090;-1.786;2022-07-25T10:41:05;100418.19;;;22.80;57.58
53246;BME280;39569;51.090;-1.786;2022-07-25T10:43:36;100419.97;;;22.64;57.42
53246;BME280;39569;51.090;-1.786;2022-07-25T10:46:12;100424.84;;;22.57;58.49
53246;BME280;39569;51.090;-1.786;2022-07-25T10:48:41;100423.56;;;23.06;55.44
53246;BME280;39569;51.090;-1.786;2022-07-25T10:51:09;100425.91;;;23.34;55.67
53246;BME280;39569;51.090;-1.786;2022-07-25T10:53:43;100426.31;;;23.63;53.69
53246;BME280;39569;51.090;-1.786;2022-07-25T10:56:14;100431.28;;;23.71;53.89
53246;BME280;39569;51.090;-1.786;2022-07-25T10:58:46;100429.91;;;23.22;54.89
53246;BME280;39569;51.090;-1.786;2022-07-25T11:01:18;100434.81;;;22.52;58.08
53246;BME280;39569;51.090;-1.786;2022-07-25T11:03:46;100430.38;;;22.40;57.18
53246;BME280;39569;51.090;-1.786;2022-07-25T11:06:14;100436.13;;;22.44;57.41
53246;BME280;39569;51.090;-1.786;2022-07-25T11:08:42;100434.91;;;22.03;58.77
53246;BME280;39569;51.090;-1.786;2022-07-25T11:11:09;100443.78;;;21.72;60.40
53246;BME280;39569;51.090;-1.786;2022-07-25T11:13:37;100447.09;;;20.98;63.24
53246;BME280;39569;51.090;-1.786;2022-07-25T11:16:05;100447.44;;;20.85;69.03
53246;BME280;39569;51.090;-1.786;2022-07-25T11:18:34;100452.72;;;20.58;69.70
53246;BME280;39569;51.090;-1.786;2022-07-25T11:21:05;100451.75;;;20.64;67.66
53246;BME280;39569;51.090;-1.786;2022-07-25T11:23:32;100452.94;;;20.23;68.62
53246;BME280;39569;51.090;-1.786;2022-07-25T11:26:04;100457.91;;;20.76;67.94
53246;BME280;39569;51.090;-1.786;2022-07-25T11:28:42;100455.66;;;23.36;60.17
53246;BME280;39569;51.090;-1.786;2022-07-25T11:31:10;100445.53;;;26.03;55.73
53246;BME280;39569;51.090;-1.786;2022-07-25T11:33:38;100447.97;;;26.53;50.34
53246;BME280;39569;51.090;-1.786;2022-07-25T11:36:08;100450.19;;;28.64;44.87
53246;BME280;39569;51.090;-1.786;2022-07-25T11:38:36;100444.03;;;26.64;45.32
53246;BME280;39569;51.090;-1.786;2022-07-25T11:41:05;100445.03;;;25.47;48.54
53246;BME280;39569;51.090;-1.786;2022-07-25T11:43:32;100454.66;;;24.69;49.44
53246;BME280;39569;51.090;-1.786;2022-07-25T11:46:00;100451.38;;;24.32;51.04
53246;BME280;39569;51.090;-1.786;2022-07-25T11:48:33;100462.78;;;24.09;51.97
53246;BME280;39569;51.090;-1.786;2022-07-25T11:51:13;100452.75;;;23.58;51.54
53246;BME280;39569;51.090;-1.786;2022-07-25T11:53:43;100454.63;;;25.40;47.19
53246;BME280;39569;51.090;-1.786;2022-07-25T11:56:12;100455.06;;;25.57;44.82
53246;BME280;39569;51.090;-1.786;2022-07-25T11:58:39;100455.50;;;24.85;47.02
53246;BME280;39569;51.090;-1.786;2022-07-25T12:01:11;100450.22;;;25.33;47.36
53246;BME280;39569;51.090;-1.786;2022-07-25T12:03:38;100456.44;;;25.59;46.39
53246;BME280;39569;51.090;-1.786;2022-07-25T12:06:06;100453.59;;;26.33;43.44
53246;BME280;39569;51.090;-1.786;2022-07-25T12:08:38;100450.25;;;28.03;40.76
53246;BME280;39569;51.090;-1.786;2022-07-25T12:11:19;100444.19;;;26.83;42.30
53246;BME280;39569;51.090;-1.786;2022-07-25T12:13:47;100456.28;;;24.65;46.87
53246;BME280;39569;51.090;-1.786;2022-07-25T12:16:15;100465.28;;;24.46;47.46
53246;BME280;39569;51.090;-1.786;2022-07-25T12:18:41;100455.94;;;24.01;48.07
53246;BME280;39569;51.090;-1.786;2022-07-25T12:21:08;100462.41;;;23.90;47.02
53246;BME280;39569;51.090;-1.786;2022-07-25T12:23:37;100457.16;;;23.64;47.61
53246;BME280;39569;51.090;-1.786;2022-07-25T12:26:06;100459.06;;;22.80;49.54
53246;BME280;39569;51.090;-1.786;2022-07-25T12:28:33;100461.00;;;22.53;51.46
53246;BME280;39569;51.090;-1.786;2022-07-25T12:31:00;100466.41;;;22.79;51.34
53246;BME280;39569;51.090;-1.786;2022-07-25T12:33:26;100466.09;;;22.76;51.54
53246;BME280;39569;51.090;-1.786;2022-07-25T12:35:53;100466.31;;;23.01;50.75
53246;BME280;39569;51.090;-1.786;2022-07-25T12:38:20;100462.88;;;22.79;50.17
53246;BME280;39569;51.090;-1.786;2022-07-25T12:40:48;100474.63;;;23.21;50.57
53246;BME280;39569;51.090;-1.786;2022-07-25T12:43:15;100475.34;;;23.48;50.91
53246;BME280;39569;51.090;-1.786;2022-07-25T12:45:42;100484.78;;;23.30;50.81